Time;durP1;ratioP1;P1;durP2;ratioP2;P2;SDS_P1;SDS_P2;PMS_P1;PMS_P2;Temp;Humidity;BMP_temperature;BMP_pressure;BME280_temperature;BME280_humidity;BME280_pressure;Samples;Min_cycle;Max_cycle;Signal;HPM_P1;HPM_P2
2022/10/04 00:01:48;;;;;;;22.63;8.80;;;7.70;99.90;;;;;;5031894;28;21158;-72
2022/10/04 00:04:22;;;;;;;18.47;7.90;;;7.70;99.90;;;;;;5031780;28;20995;-72
2022/10/04 00:06:54;;;;;;;15.80;7.70;;;7.60;99.90;;;;;;5032197;28;20946;-72
2022/10/04 00:09:24;;;;;;;19.23;7.83;;;7.60;99.90;;;;;;5031960;28;20445;-72
2022/10/04 00:11:54;;;;;;;17.30;8.50;;;7.60;99.90;;;;;;5032097;28;20982;-72
2022/10/04 00:14:24;;;;;;;18.57;10.70;;;7.60;99.90;;;;;;5031910;28;20471;-72
2022/10/04 00:16:52;;;;;;;29.70;13.60;;;7.60;99.90;;;;;;5031770;28;20944;-72
2022/10/04 00:19:41;;;;;;;22.73;12.10;;;7.60;99.90;;;;;;5031726;28;20457;-72
2022/10/04 00:22:23;;;;;;;27.57;12.57;;;7.60;99.90;;;;;;5031027;28;20491;-72
2022/10/04 00:25:20;;;;;;;17.50;11.10;;;7.50;99.90;;;;;;5031584;28;21007;-72
2022/10/04 00:28:16;;;;;;;24.00;11.17;;;7.50;99.90;;;;;;5031932;28;20898;-72
2022/10/04 00:30:43;;;;;;;19.87;10.60;;;7.40;99.90;;;;;;4996653;28;20500;-72
2022/10/04 00:33:10;;;;;;;19.10;10.93;;;7.50;99.90;;;;;;5031629;28;20452;-72
2022/10/04 00:35:49;;;;;;;15.70;9.37;;;7.50;99.90;;;;;;5031061;28;20984;-72
2022/10/04 00:38:24;;;;;;;17.77;9.73;;;7.50;99.90;;;;;;5031667;28;20982;-72
2022/10/04 00:40:56;;;;;;;14.90;10.10;;;7.50;99.90;;;;;;5031765;28;20452;-72
2022/10/04 00:43:28;;;;;;;26.83;10.40;;;7.50;99.90;;;;;;5031665;28;20485;-72
2022/10/04 00:46:00;;;;;;;16.27;9.20;;;7.50;99.90;;;;;;5030906;28;20480;-72
2022/10/04 00:48:39;;;;;;;18.87;9.67;;;7.50;99.90;;;;;;5031489;28;20455;-72
2022/10/04 00:51:13;;;;;;;18.00;9.67;;;7.50;99.90;;;;;;5031750;28;20463;-72
2022/10/04 00:53:50;;;;;;;16.60;9.33;;;7.50;99.90;;;;;;5031661;28;20445;-72
2022/10/04 00:56:23;;;;;;;16.80;9.17;;;7.50;99.90;;;;;;5031123;28;20456;-72
2022/10/04 00:59:10;;;;;;;25.03;9.90;;;7.50;99.90;;;;;;5031241;28;20456;-72
2022/10/04 01:01:37;;;;;;;18.97;10.10;;;7.40;99.90;;;;;;5031430;28;20452;-72
2022/10/04 01:04:14;;;;;;;17.70;9.80;;;7.30;99.90;;;;;;5031219;28;20498;-72
2022/10/04 01:06:43;;;;;;;19.50;9.00;;;7.30;99.90;;;;;;5030924;28;20453;-72
2022/10/04 01:09:12;;;;;;;14.80;9.97;;;7.30;99.90;;;;;;5031424;28;20450;-72
2022/10/04 01:11:45;;;;;;;24.20;9.33;;;7.30;99.90;;;;;;5031223;28;20534;-72
2022/10/04 01:14:25;;;;;;;15.70;8.77;;;7.30;99.90;;;;;;5031257;28;20481;-72
2022/10/04 01:16:53;;;;;;;18.83;9.10;;;7.20;99.90;;;;;;5011497;28;20449;-72
2022/10/04 01:19:29;;;;;;;21.73;7.70;;;7.20;99.90;;;;;;5011732;28;20454;-72
2022/10/04 01:22:09;;;;;;;18.33;9.07;;;7.10;99.90;;;;;;5011527;28;20470;-72
2022/10/04 01:24:38;;;;;;;17.47;9.33;;;7.10;99.90;;;;;;5024760;28;20492;-72
2022/10/04 01:27:33;;;;;;;15.50;8.70;;;7.10;99.90;;;;;;5030932;28;20447;-72
2022/10/04 01:30:01;;;;;;;12.20;8.10;;;7.10;99.90;;;;;;5031237;28;20518;-72
2022/10/04 01:32:29;;;;;;;15.53;8.53;;;7.20;99.90;;;;;;5030915;28;20451;-72
2022/10/04 01:34:56;;;;;;;21.13;10.30;;;7.20;99.90;;;;;;5030462;28;21052;-72
2022/10/04 01:37:23;;;;;;;19.73;9.10;;;7.20;99.90;;;;;;5031010;28;20461;-72
2022/10/04 01:39:50;;;;;;;15.50;8.63;;;7.20;99.90;;;;;;5030795;28;20461;-72
2022/10/04 01:42:20;;;;;;;12.90;7.83;;;7.30;99.90;;;;;;5030851;28;20451;-72
2022/10/04 01:44:54;;;;;;;15.60;8.77;;;7.30;99.90;;;;;;5030254;28;20515;-72
2022/10/04 01:47:27;;;;;;;14.30;8.13;;;7.30;99.90;;;;;;5030012;28;20491;-72
2022/10/04 01:49:57;;;;;;;23.53;9.43;;;7.20;99.90;;;;;;5030987;28;20456;-72
2022/10/04 01:52:30;;;;;;;11.27;7.87;;;7.10;99.90;;;;;;5030928;28;20460;-72
2022/10/04 01:55:02;;;;;;;15.23;7.93;;;7.10;99.90;;;;;;5029930;28;20469;-72
2022/10/04 01:57:35;;;;;;;15.23;8.30;;;7.10;99.90;;;;;;5030737;28;20953;-72
2022/10/04 02:00:06;;;;;;;13.93;7.93;;;7.10;99.90;;;;;;5031168;28;20446;-72
2022/10/04 02:02:38;;;;;;;14.37;8.37;;;7.00;99.90;;;;;;5033545;28;20447;-72
2022/10/04 02:05:09;;;;;;;13.07;7.90;;;7.00;99.90;;;;;;5033984;28;20489;-72
2022/10/04 02:07:38;;;;;;;21.17;8.70;;;7.00;99.90;;;;;;5034134;28;20447;-72
2022/10/04 02:10:09;;;;;;;16.87;9.10;;;7.00;99.90;;;;;;5034103;28;20502;-72
2022/10/04 02:12:37;;;;;;;12.80;8.20;;;7.00;99.90;;;;;;5033873;28;20881;-72
2022/10/04 02:15:10;;;;;;;13.97;8.83;;;7.00;99.90;;;;;;5033803;28;20517;-72
2022/10/04 02:17:41;;;;;;;12.53;8.00;;;7.00;99.90;;;;;;5033991;28;20465;-72
2022/10/04 02:20:13;;;;;;;17.00;8.07;;;7.00;99.90;;;;;;5034271;28;20497;-72
2022/10/04 02:22:42;;;;;;;18.30;8.63;;;6.90;99.90;;;;;;5033837;28;20463;-72
2022/10/04 02:25:10;;;;;;;17.53;8.80;;;6.90;99.90;;;;;;5033418;28;20495;-73
2022/10/04 02:27:37;;;;;;;13.47;7.87;;;6.80;99.90;;;;;;5033520;28;20966;-72
2022/10/04 02:30:07;;;;;;;14.93;7.63;;;6.80;99.90;;;;;;5034329;28;20452;-72
2022/10/04 02:35:20;;;;;;;13.93;7.83;;;6.80;99.90;;;;;;5032992;28;20532;-72
2022/10/04 02:37:49;;;;;;;11.40;7.30;;;6.80;99.90;;;;;;5033881;28;20453;-72
2022/10/04 02:40:20;;;;;;;13.10;7.53;;;6.80;99.90;;;;;;5034058;28;20489;-72
2022/10/04 02:42:49;;;;;;;16.87;7.27;;;6.80;99.90;;;;;;5014167;28;21095;-72
2022/10/04 02:45:23;;;;;;;13.13;8.17;;;6.70;99.90;;;;;;5029941;28;20505;-72
2022/10/04 02:47:57;;;;;;;16.50;8.37;;;6.70;99.90;;;;;;5033222;28;20471;-72
2022/10/04 02:50:30;;;;;;;15.63;8.60;;;6.70;99.90;;;;;;5033429;28;20450;-72
2022/10/04 02:53:03;;;;;;;18.50;8.57;;;6.60;99.90;;;;;;5033425;28;20450;-72
2022/10/04 02:55:31;;;;;;;18.73;8.57;;;6.60;99.90;;;;;;5032619;28;20481;-72
2022/10/04 02:57:59;;;;;;;28.20;9.53;;;6.60;99.90;;;;;;5033146;28;20460;-72
2022/10/04 03:00:29;;;;;;;22.37;10.07;;;6.70;99.90;;;;;;5033455;28;20458;-72
2022/10/04 03:03:15;;;;;;;32.60;11.70;;;6.70;99.90;;;;;;5033153;28;20462;-72
2022/10/04 03:05:44;;;;;;;28.00;9.50;;;6.80;99.90;;;;;;5032415;28;21235;-72
2022/10/04 03:08:12;;;;;;;34.23;10.57;;;6.90;99.90;;;;;;5033346;28;20451;-72
2022/10/04 03:10:41;;;;;;;26.10;10.80;;;6.90;99.90;;;;;;5033956;28;20463;-72
2022/10/04 03:13:08;;;;;;;29.07;11.40;;;6.90;99.90;;;;;;5033068;28;20448;-72
2022/10/04 03:15:37;;;;;;;27.47;10.67;;;6.90;99.90;;;;;;5032495;28;20474;-72
2022/10/04 03:18:04;;;;;;;39.10;10.80;;;6.90;99.90;;;;;;5032852;28;20452;-72
2022/10/04 03:20:31;;;;;;;24.20;8.97;;;6.90;99.90;;;;;;5033231;28;20460;-72
2022/10/04 03:22:58;;;;;;;20.77;7.80;;;6.80;99.90;;;;;;5032925;28;20460;-72
2022/10/04 03:25:29;;;;;;;20.87;9.50;;;6.70;99.90;;;;;;5032917;28;20487;-72
2022/10/04 03:28:01;;;;;;;17.33;8.60;;;6.70;99.90;;;;;;5033176;28;20443;-72
2022/10/04 03:30:30;;;;;;;16.67;7.90;;;6.70;99.90;;;;;;5032953;28;20506;-74
2022/10/04 03:32:59;;;;;;;17.27;7.80;;;6.60;99.90;;;;;;5016588;28;20465;-72
2022/10/04 03:35:29;;;;;;;10.17;7.00;;;6.50;99.90;;;;;;5031495;28;20476;-72
2022/10/04 03:37:58;;;;;;;10.77;7.10;;;6.40;99.90;;;;;;5032613;28;21022;-73
2022/10/04 03:40:29;;;;;;;16.83;7.50;;;6.30;99.90;;;;;;5032719;28;20822;-71
2022/10/04 03:42:56;;;;;;;14.90;7.60;;;6.30;99.90;;;;;;5032458;28;20954;-71
2022/10/04 03:45:24;;;;;;;10.67;7.73;;;6.30;99.90;;;;;;5031985;28;20491;-72
2022/10/04 03:47:52;;;;;;;11.60;7.53;;;6.20;99.90;;;;;;5032661;28;20475;-72
2022/10/04 03:50:25;;;;;;;9.80;7.67;;;6.20;99.90;;;;;;5032568;28;20465;-73
2022/10/04 03:52:54;;;;;;;12.03;7.80;;;6.20;99.90;;;;;;5032265;28;20465;-72
2022/10/04 03:55:25;;;;;;;12.13;6.63;;;6.20;99.90;;;;;;5032070;28;20526;-72
2022/10/04 03:57:52;;;;;;;11.00;7.03;;;6.30;99.90;;;;;;5031804;28;20450;-73
2022/10/04 04:00:19;;;;;;;13.73;7.00;;;6.40;99.90;;;;;;5032300;28;20443;-72
2022/10/04 04:02:51;;;;;;;21.83;8.90;;;6.40;99.90;;;;;;5032465;28;20458;-71
2022/10/04 04:05:24;;;;;;;19.23;9.50;;;6.50;99.90;;;;;;5031718;28;21021;-72
2022/10/04 04:08:00;;;;;;;22.30;10.40;;;6.60;99.90;;;;;;5032249;28;20460;-71
2022/10/04 04:10:30;;;;;;;23.03;10.07;;;6.60;99.90;;;;;;5032044;28;20456;-72
2022/10/04 04:13:00;;;;;;;21.20;9.50;;;6.70;99.90;;;;;;5031790;28;20978;-72
2022/10/04 04:15:29;;;;;;;18.40;9.77;;;6.70;99.90;;;;;;5031389;28;20477;-72
2022/10/04 04:18:00;;;;;;;18.20;8.77;;;6.80;99.90;;;;;;5032178;28;20486;-72
2022/10/04 04:20:31;;;;;;;11.70;7.73;;;6.80;99.90;;;;;;5032042;28;20446;-72
2022/10/04 04:23:05;;;;;;;27.30;9.43;;;6.80;99.90;;;;;;5032016;28;20447;-72
2022/10/04 04:25:37;;;;;;;20.93;8.13;;;6.80;99.90;;;;;;5029708;28;20496;-72
2022/10/04 04:28:13;;;;;;;15.40;8.73;;;6.80;99.90;;;;;;5031901;28;20929;-72
2022/10/04 04:30:45;;;;;;;15.53;8.73;;;6.80;99.90;;;;;;5031729;28;20451;-72
2022/10/04 04:33:21;;;;;;;20.20;8.93;;;6.70;99.90;;;;;;5031023;28;20836;-72
2022/10/04 04:35:55;;;;;;;22.23;9.17;;;6.60;99.90;;;;;;5031152;28;20903;-72
2022/10/04 04:38:24;;;;;;;27.40;9.03;;;6.60;99.90;;;;;;5031974;28;20446;-72
2022/10/04 04:40:54;;;;;;;22.37;9.17;;;6.60;99.90;;;;;;5031926;28;20465;-72
2022/10/04 04:43:24;;;;;;;22.30;11.03;;;6.60;99.90;;;;;;5031819;28;20457;-71
2022/10/04 04:45:52;;;;;;;38.37;12.27;;;6.60;99.90;;;;;;5031227;28;20479;-72
2022/10/04 04:48:21;;;;;;;24.33;11.43;;;6.70;99.90;;;;;;5031470;28;20967;-71
2022/10/04 04:50:55;;;;;;;27.90;11.50;;;6.80;99.90;;;;;;5031764;28;20464;-71
2022/10/04 04:53:26;;;;;;;22.50;11.57;;;6.80;99.90;;;;;;5031226;28;20958;-72
2022/10/04 04:55:56;;;;;;;25.53;11.90;;;6.90;99.90;;;;;;5031365;28;20467;-72
2022/10/04 04:58:26;;;;;;;27.10;10.77;;;6.90;99.90;;;;;;5031387;28;20835;-72
2022/10/04 05:00:57;;;;;;;48.00;11.07;;;6.90;99.90;;;;;;5031157;28;20469;-71
2022/10/04 05:03:24;;;;;;;74.93;19.37;;;6.90;99.90;;;;;;5030050;28;20985;-71
2022/10/04 05:05:53;;;;;;;131.13;35.90;;;6.90;99.90;;;;;;5029416;28;20571;-72
2022/10/04 05:08:23;;;;;;;329.37;121.33;;;6.90;99.90;;;;;;5029762;28;20466;-72
2022/10/04 05:10:57;;;;;;;230.30;85.07;;;6.90;99.90;;;;;;5030157;28;20521;-71
2022/10/04 05:13:30;;;;;;;42.83;19.50;;;6.90;99.90;;;;;;5029515;28;20452;-71
2022/10/04 05:15:59;;;;;;;26.20;11.07;;;6.90;99.90;;;;;;5030189;28;20477;-72
2022/10/04 05:18:30;;;;;;;50.27;11.27;;;6.90;99.90;;;;;;5031357;28;20457;-72
2022/10/04 05:21:04;;;;;;;24.33;10.43;;;6.90;99.90;;;;;;5031028;28;20453;-71
2022/10/04 05:23:30;;;;;;;23.10;11.57;;;6.90;99.90;;;;;;5031158;28;20452;-72
2022/10/04 05:26:01;;;;;;;18.23;9.87;;;6.90;99.90;;;;;;5030904;28;20486;-72
2022/10/04 05:28:28;;;;;;;23.23;11.17;;;6.90;99.90;;;;;;5031606;28;20454;-72
2022/10/04 05:31:20;;;;;;;24.07;10.67;;;7.00;99.90;;;;;;5031219;28;20450;-72
2022/10/04 05:33:51;;;;;;;27.33;10.93;;;7.00;99.90;;;;;;5030921;28;20458;-72
2022/10/04 05:36:41;;;;;;;18.53;9.43;;;7.10;99.90;;;;;;5033210;28;20445;-72
2022/10/04 05:39:13;;;;;;;19.23;11.23;;;7.00;99.90;;;;;;5034930;28;20460;-72
2022/10/04 05:41:48;;;;;;;22.10;10.27;;;7.10;99.90;;;;;;5035292;28;20445;-72
2022/10/04 05:44:24;;;;;;;20.70;10.00;;;7.10;99.90;;;;;;5035050;28;20469;-72
2022/10/04 05:46:53;;;;;;;18.70;10.97;;;7.10;99.90;;;;;;5034431;28;20544;-72
2022/10/04 05:49:21;;;;;;;26.07;11.90;;;7.10;99.90;;;;;;5034772;28;20480;-72
2022/10/04 05:51:52;;;;;;;23.77;11.90;;;7.10;99.90;;;;;;5034894;28;20500;-72
2022/10/04 05:54:22;;;;;;;19.37;11.03;;;7.10;99.90;;;;;;5034563;28;20480;-72
2022/10/04 05:57:14;;;;;;;24.23;10.53;;;7.20;99.90;;;;;;5034607;28;20454;-72
2022/10/04 05:59:55;;;;;;;16.67;8.73;;;7.20;99.90;;;;;;5034864;28;20457;-72
2022/10/04 06:02:36;;;;;;;21.67;8.77;;;7.20;99.90;;;;;;5018962;28;20459;-72
2022/10/04 06:05:14;;;;;;;16.20;9.23;;;7.20;99.90;;;;;;5034258;28;20488;-72
2022/10/04 06:07:49;;;;;;;17.47;9.30;;;7.20;99.90;;;;;;5034674;28;20892;-72
2022/10/04 06:10:43;;;;;;;18.13;9.50;;;7.20;99.90;;;;;;5034781;28;20449;-72
2022/10/04 06:13:22;;;;;;;16.97;9.30;;;7.30;99.90;;;;;;5034705;28;20462;-72
2022/10/04 06:16:11;;;;;;;17.30;9.73;;;7.30;99.90;;;;;;5033459;28;20481;-71
2022/10/04 06:18:53;;;;;;;18.40;9.43;;;7.30;99.90;;;;;;5034341;28;20529;-71
2022/10/04 06:21:24;;;;;;;18.67;10.67;;;7.30;99.90;;;;;;5018103;28;20934;-71
2022/10/04 06:24:02;;;;;;;17.30;10.40;;;7.40;99.90;;;;;;5034295;28;20459;-71
2022/10/04 06:26:39;;;;;;;17.50;9.07;;;7.40;99.90;;;;;;5034242;28;20827;-71
2022/10/04 06:29:11;;;;;;;16.93;9.93;;;7.40;99.90;;;;;;5033621;28;20481;-71
2022/10/04 06:32:10;;;;;;;15.37;9.90;;;7.40;99.90;;;;;;5034118;28;20456;-71
2022/10/04 06:34:58;;;;;;;20.93;9.47;;;7.40;99.90;;;;;;5033893;28;20937;-72
2022/10/04 06:38:03;;;;;;;19.13;10.73;;;7.40;99.90;;;;;;5034618;28;20454;-71
2022/10/04 06:40:48;;;;;;;23.17;9.77;;;7.40;99.90;;;;;;4977948;28;20461;-71
2022/10/04 06:43:31;;;;;;;16.50;9.97;;;7.30;99.90;;;;;;5033914;28;20460;-71
2022/10/04 06:46:09;;;;;;;22.43;10.87;;;7.20;99.90;;;;;;5033043;28;20511;-71
2022/10/04 06:49:15;;;;;;;29.80;12.20;;;7.20;99.90;;;;;;5032513;28;20453;-71
2022/10/04 06:52:15;;;;;;;20.10;10.60;;;7.20;99.90;;;;;;5031054;28;20442;-74
2022/10/04 06:55:08;;;;;;;22.10;10.87;;;7.10;99.90;;;;;;5028512;28;20473;-71
2022/10/04 06:57:58;;;;;;;27.90;10.77;;;7.10;99.90;;;;;;5029603;28;20442;-67
2022/10/04 07:00:27;;;;;;;18.50;11.10;;;7.10;99.90;;;;;;5028388;28;20492;-67
2022/10/04 07:03:00;;;;;;;20.80;11.10;;;7.10;99.90;;;;;;5028678;28;20568;-67
2022/10/04 07:05:32;;;;;;;18.30;11.07;;;7.20;99.90;;;;;;5028758;28;20481;-67
2022/10/04 07:08:07;;;;;;;17.40;10.70;;;7.20;99.90;;;;;;5029296;28;20979;-67
2022/10/04 07:10:40;;;;;;;17.83;11.63;;;7.30;99.90;;;;;;5029369;28;20450;-68
2022/10/04 07:13:17;;;;;;;16.20;10.10;;;7.60;99.90;;;;;;5029046;28;20501;-67
2022/10/04 07:15:55;;;;;;;17.90;10.30;;;8.00;99.90;;;;;;5028841;28;20449;-73
2022/10/04 07:18:27;;;;;;;23.20;9.97;;;8.60;99.90;;;;;;5029507;28;20216;-73
2022/10/04 07:21:02;;;;;;;14.10;9.90;;;8.80;99.90;;;;;;5029932;28;20456;-73
2022/10/04 07:23:34;;;;;;;14.87;9.00;;;8.90;99.90;;;;;;5029099;28;20977;-73
2022/10/04 07:26:06;;;;;;;12.17;8.70;;;9.00;99.90;;;;;;5029150;28;21024;-73
2022/10/04 07:31:30;;;;;;;15.40;8.83;;;9.60;99.90;;;;;;5028914;28;20460;-73
2022/10/04 07:34:00;;;;;;;15.40;10.03;;;10.00;99.90;;;;;;5028717;28;20451;-73
2022/10/04 07:36:31;;;;;;;13.27;9.90;;;10.20;99.90;;;;;;5029123;28;20446;-73
2022/10/04 07:39:06;;;;;;;16.00;10.20;;;10.40;99.90;;;;;;5029418;28;20445;-73
2022/10/04 07:41:35;;;;;;;14.90;10.30;;;10.60;99.90;;;;;;5029202;28;20799;-73
2022/10/04 07:44:07;;;;;;;17.00;11.13;;;10.80;99.90;;;;;;5028993;28;20473;-73
2022/10/04 07:46:48;;;;;;;13.80;9.83;;;11.00;99.90;;;;;;5029076;28;20486;-73
2022/10/04 07:49:17;;;;;;;10.90;8.40;;;11.30;99.90;;;;;;5029163;28;20483;-73
2022/10/04 07:52:01;;;;;;;17.60;9.23;;;11.50;99.90;;;;;;5028056;28;21186;-73
2022/10/04 07:54:37;;;;;;;20.43;9.00;;;11.20;99.90;;;;;;5028755;28;20484;-73
2022/10/04 07:57:12;;;;;;;12.20;8.87;;;10.90;99.90;;;;;;5028669;28;20453;-73
2022/10/04 07:59:47;;;;;;;17.73;9.63;;;10.80;99.90;;;;;;5028985;28;20439;-73
2022/10/04 08:02:25;;;;;;;13.60;9.40;;;10.60;99.90;;;;;;5028346;28;20484;-73
2022/10/04 08:05:01;;;;;;;14.43;9.27;;;10.50;99.90;;;;;;5028448;28;20549;-73
2022/10/04 08:07:39;;;;;;;15.03;9.40;;;10.60;99.90;;;;;;5029002;28;20452;-73
2022/10/04 08:10:14;;;;;;;17.30;9.70;;;10.80;99.90;;;;;;5028448;28;20449;-73
2022/10/04 08:12:49;;;;;;;27.53;10.03;;;10.80;99.90;;;;;;5028828;28;20449;-73
2022/10/04 08:15:35;;;;;;;17.33;9.87;;;10.40;99.90;;;;;;5028585;28;20468;-73
2022/10/04 08:18:16;;;;;;;18.33;11.00;;;10.10;99.90;;;;;;5028870;28;20547;-73
2022/10/04 08:20:48;;;;;;;19.10;11.97;;;9.90;99.90;;;;;;5028282;28;20469;-73
2022/10/04 08:23:46;;;;;;;21.97;11.43;;;10.00;99.90;;;;;;5028909;28;20454;-73
2022/10/04 08:26:33;;;;;;;18.17;11.43;;;10.20;99.90;;;;;;5028142;28;20581;-73
2022/10/04 08:32:08;;;;;;;25.90;11.93;;;10.20;99.90;;;;;;5028201;28;20445;-74
2022/10/04 08:34:52;;;;;;;24.53;13.47;;;10.20;99.90;;;;;;5028363;28;20977;-74
2022/10/04 08:37:32;;;;;;;25.13;13.60;;;10.10;99.90;;;;;;5027888;28;20486;-74
2022/10/04 08:40:35;;;;;;;25.30;14.10;;;9.90;99.90;;;;;;5028264;28;20929;-74
2022/10/04 08:43:23;;;;;;;30.13;14.80;;;9.80;99.90;;;;;;5028204;28;20864;-74
2022/10/04 08:46:19;;;;;;;33.10;15.37;;;9.90;99.90;;;;;;5026914;28;20488;-75
2022/10/04 08:49:16;;;;;;;30.20;16.60;;;10.20;99.90;;;;;;5028482;28;20445;-74
2022/10/04 08:52:12;;;;;;;27.83;16.53;;;10.40;99.90;;;;;;5027761;28;21050;-74
2022/10/04 08:55:15;;;;;;;26.60;15.90;;;10.60;99.90;;;;;;5028133;28;21056;-74
2022/10/04 08:58:01;;;;;;;33.07;16.50;;;10.50;99.90;;;;;;5028083;28;20453;-73
2022/10/04 09:00:38;;;;;;;29.30;16.13;;;10.40;99.90;;;;;;5027923;28;20450;-74
2022/10/04 09:03:44;;;;;;;29.70;17.13;;;10.40;99.90;;;;;;5028280;28;20968;-75
2022/10/04 09:06:36;;;;;;;29.53;15.77;;;10.50;99.90;;;;;;5027025;28;20485;-75
2022/10/04 09:09:27;;;;;;;23.90;15.20;;;10.70;99.90;;;;;;5027625;28;20454;-75
2022/10/04 09:12:31;;;;;;;27.07;15.40;;;10.60;99.90;;;;;;5034077;28;20457;-75
2022/10/04 09:15:19;;;;;;;31.77;16.40;;;10.90;99.90;;;;;;5034470;28;20483;-75
2022/10/04 09:18:01;;;;;;;23.90;15.20;;;11.20;99.90;;;;;;5034102;28;20981;-75
2022/10/04 09:20:41;;;;;;;24.97;14.83;;;11.50;99.90;;;;;;5034366;28;20450;-75
2022/10/04 09:23:36;;;;;;;27.40;15.53;;;11.70;99.90;;;;;;5034043;28;20805;-75
2022/10/04 09:26:19;;;;;;;19.97;13.23;;;12.10;99.90;;;;;;5034306;28;20493;-75
2022/10/04 09:29:22;;;;;;;22.20;13.37;;;12.40;99.90;;;;;;5034562;28;20460;-75
2022/10/04 09:32:19;;;;;;;20.60;13.00;;;12.60;99.90;;;;;;5027367;28;20453;-75
2022/10/04 09:35:05;;;;;;;20.73;13.43;;;12.50;99.90;;;;;;5033170;28;20980;-75
2022/10/04 09:38:09;;;;;;;19.27;12.13;;;12.70;99.90;;;;;;5034265;28;20476;-75
2022/10/04 09:41:07;;;;;;;27.47;13.10;;;12.80;99.90;;;;;;5034350;28;20482;-75
2022/10/04 09:44:22;;;;;;;18.50;10.77;;;13.00;99.90;;;;;;5033996;28;20825;-75
2022/10/04 09:47:21;;;;;;;20.77;10.83;;;13.10;99.90;;;;;;5033399;28;20488;-75
2022/10/04 09:50:25;;;;;;;21.30;10.80;;;13.40;99.90;;;;;;5026277;28;20460;-75
2022/10/04 09:52:57;;;;;;;15.30;10.30;;;13.50;99.90;;;;;;5034356;28;20449;-75
2022/10/04 09:55:45;;;;;;;16.90;10.63;;;13.40;99.90;;;;;;5033929;28;20476;-76
2022/10/04 09:58:31;;;;;;;16.37;10.20;;;13.40;99.90;;;;;;5034094;28;20460;-74
2022/10/04 10:01:10;;;;;;;17.70;9.70;;;13.50;99.90;;;;;;5033624;28;20459;-75
2022/10/04 10:03:56;;;;;;;14.63;9.13;;;13.70;99.90;;;;;;5033692;28;20438;-75
2022/10/04 10:06:50;;;;;;;15.37;8.87;;;13.80;99.90;;;;;;5034060;28;20481;-75
2022/10/04 10:13:38;;;;;;;16.00;8.90;;;14.00;99.90;;;;;;5033647;28;20457;-75
2022/10/04 10:15:29;;;;;;;14.47;7.83;;;14.10;99.90;;;;;;5033564;28;20463;-75
2022/10/04 10:18:05;;;;;;;21.30;8.70;;;14.30;99.90;;;;;;5033447;28;20453;-75
2022/10/04 10:20:57;;;;;;;12.37;7.90;;;14.60;99.90;;;;;;5033720;28;20464;-76
2022/10/04 10:23:50;;;;;;;9.13;7.50;;;14.70;99.90;;;;;;5029522;28;20457;-75
2022/10/04 10:26:35;;;;;;;13.73;7.10;;;14.80;99.90;;;;;;5030604;28;20996;-75
2022/10/04 10:29:20;;;;;;;12.20;6.93;;;14.80;99.90;;;;;;5030776;28;20993;-75
2022/10/04 10:32:01;;;;;;;18.17;7.30;;;15.00;99.90;;;;;;5030510;28;20445;-75
2022/10/04 10:35:13;;;;;;;14.67;7.93;;;15.20;99.90;;;;;;5030272;28;20821;-75
2022/10/04 10:37:51;;;;;;;10.60;6.63;;;15.20;99.90;;;;;;5030672;28;20466;-75
2022/10/04 10:40:35;;;;;;;24.40;8.00;;;15.40;99.90;;;;;;5030215;28;21312;-75
2022/10/04 10:43:40;;;;;;;10.30;6.60;;;15.70;99.90;;;;;;5030601;28;20458;-76
2022/10/04 10:46:20;;;;;;;9.50;7.03;;;15.80;99.90;;;;;;5029832;28;20488;-76
2022/10/04 10:49:33;;;;;;;13.93;7.20;;;15.70;99.90;;;;;;5030163;28;20633;-76
2022/10/04 10:52:30;;;;;;;13.63;6.87;;;15.70;99.90;;;;;;4988209;28;20512;-76
2022/10/04 10:55:30;;;;;;;9.37;7.00;;;15.60;99.90;;;;;;5030016;28;21076;-75
2022/10/04 10:58:24;;;;;;;13.03;7.23;;;15.90;99.90;;;;;;5007362;28;20436;-76
2022/10/04 11:01:11;;;;;;;12.03;5.80;;;16.10;99.90;;;;;;5021549;28;20436;-76
2022/10/04 11:04:11;;;;;;;12.73;5.90;;;16.30;99.90;;;;;;5030092;28;20436;-77
2022/10/04 11:07:12;;;;;;;9.30;6.37;;;16.20;99.90;;;;;;5030117;28;20482;-76
2022/10/04 11:10:13;;;;;;;10.17;6.30;;;16.00;99.90;;;;;;5012326;28;20438;-75
2022/10/04 11:13:04;;;;;;;12.43;5.73;;;15.80;99.90;;;;;;5004259;28;20460;-76
2022/10/04 11:16:00;;;;;;;8.00;6.00;;;16.00;99.90;;;;;;5029419;28;20469;-77
2022/10/04 11:18:56;;;;;;;13.80;6.10;;;16.30;99.90;;;;;;5029999;28;20516;-76
2022/10/04 11:22:06;;;;;;;11.77;6.00;;;16.70;99.90;;;;;;5029249;28;20453;-75
2022/10/04 11:25:00;;;;;;;9.17;6.03;;;17.00;99.90;;;;;;5029275;28;20884;-75
2022/10/04 11:27:42;;;;;;;12.63;5.47;;;17.10;99.90;;;;;;5029267;28;20463;-76
2022/10/04 11:30:22;;;;;;;9.70;5.60;;;17.30;99.90;;;;;;5029900;28;20451;-75
2022/10/04 11:33:24;;;;;;;7.50;5.13;;;17.40;99.90;;;;;;5028696;28;20469;-75
2022/10/04 11:36:16;;;;;;;8.77;5.60;;;17.70;99.90;;;;;;5029423;28;20436;-75
2022/10/04 11:39:01;;;;;;;9.90;5.10;;;17.90;99.90;;;;;;5028956;28;20935;-76
2022/10/04 11:41:42;;;;;;;7.40;5.07;;;17.80;99.90;;;;;;5029551;28;20427;-75
2022/10/04 11:44:54;;;;;;;8.20;5.27;;;18.00;99.90;;;;;;5029248;28;20440;-75
2022/10/04 11:47:40;;;;;;;12.13;5.00;;;17.90;99.90;;;;;;5028806;28;20463;-75
2022/10/04 11:50:21;;;;;;;6.43;4.97;;;17.70;99.90;;;;;;5029043;28;20454;-75
2022/10/04 11:53:14;;;;;;;14.70;4.67;;;17.60;99.90;;;;;;5028987;28;20440;-76
2022/10/04 11:56:19;;;;;;;10.90;4.83;;;17.60;99.90;;;;;;5028210;28;20820;-76
2022/10/04 11:58:59;;;;;;;9.73;4.70;;;18.00;99.90;;;;;;5028836;28;20436;-77
2022/10/04 12:01:49;;;;;;;8.10;4.77;;;18.30;99.90;;;;;;5028552;28;20416;-76
2022/10/04 12:04:52;;;;;;;10.50;5.40;;;18.40;99.90;;;;;;5028775;28;20440;-75
2022/10/04 12:07:37;;;;;;;7.77;4.47;;;18.50;99.90;;;;;;5028942;28;20851;-76
2022/10/04 12:10:27;;;;;;;9.40;4.93;;;18.50;99.90;;;;;;5028746;28;20786;-76
2022/10/04 12:13:21;;;;;;;7.70;4.57;;;18.30;99.90;;;;;;5028180;28;20808;-75
2022/10/04 12:16:05;;;;;;;7.10;4.50;;;18.30;99.90;;;;;;5023365;28;20444;-74
2022/10/04 12:31:57;;;;;;;6.20;4.20;;;18.30;99.90;;;;;;5146439;27;20578;-74
2022/10/04 12:34:30;;;;;;;11.83;3.93;;;18.30;99.90;;;;;;5124512;27;20416;-76
2022/10/04 12:37:12;;;;;;;8.93;4.60;;;18.20;99.90;;;;;;5124267;28;20545;-76
2022/10/04 12:39:52;;;;;;;9.70;5.40;;;18.20;99.90;;;;;;5125336;28;20448;-75
2022/10/04 12:42:30;;;;;;;9.13;4.60;;;18.40;99.90;;;;;;5125424;28;20602;-77
2022/10/04 12:45:25;;;;;;;6.90;5.00;;;18.50;99.90;;;;;;5124887;28;20464;-75
2022/10/04 12:48:08;;;;;;;10.63;4.77;;;18.50;99.90;;;;;;5125861;28;21577;-75
2022/10/04 12:50:51;;;;;;;11.07;5.30;;;18.30;99.90;;;;;;5124816;28;20504;-75
2022/10/04 12:53:30;;;;;;;9.53;4.93;;;18.40;99.90;;;;;;5125173;27;20878;-75
2022/10/04 12:56:08;;;;;;;7.20;5.13;;;18.50;99.90;;;;;;5125465;27;20447;-76
2022/10/04 12:58:50;;;;;;;11.97;5.53;;;18.30;99.90;;;;;;5125344;28;20433;-76
2022/10/04 13:01:26;;;;;;;9.97;5.70;;;18.30;99.90;;;;;;5124635;28;20934;-75
2022/10/04 13:04:20;;;;;;;9.40;4.87;;;18.30;99.90;;;;;;5124536;28;20445;-75
2022/10/04 13:07:01;;;;;;;11.33;5.60;;;18.40;99.90;;;;;;5125045;28;20430;-74
2022/10/04 13:09:40;;;;;;;13.10;5.67;;;18.50;99.90;;;;;;5125191;28;20453;-75
2022/10/04 13:12:21;;;;;;;8.67;5.37;;;18.40;99.90;;;;;;5124748;28;20579;-75
2022/10/04 13:14:59;;;;;;;12.70;5.70;;;18.40;99.90;;;;;;5124959;28;20446;-75
2022/10/04 13:17:37;;;;;;;8.50;5.93;;;18.40;99.90;;;;;;5124747;28;20449;-75
2022/10/04 13:20:26;;;;;;;16.57;6.40;;;18.40;99.90;;;;;;5124585;28;20452;-74
2022/10/04 13:22:58;;;;;;;10.30;5.70;;;18.30;99.90;;;;;;5125125;28;20425;-76
2022/10/04 13:25:55;;;;;;;12.00;5.90;;;18.30;99.90;;;;;;5125060;28;20442;-75
2022/10/04 13:28:28;;;;;;;10.80;5.90;;;18.20;99.90;;;;;;5108856;27;20838;-74
2022/10/04 13:31:03;;;;;;;12.00;5.57;;;18.20;99.90;;;;;;5121052;28;20448;-74
2022/10/04 13:33:40;;;;;;;12.97;6.40;;;18.20;99.90;;;;;;5111510;28;20483;-74
2022/10/04 13:36:12;;;;;;;9.10;5.17;;;18.40;99.90;;;;;;5110829;28;20541;-75
2022/10/04 13:39:18;;;;;;;10.03;5.37;;;18.50;99.90;;;;;;5110928;28;20447;-71
2022/10/04 13:42:01;;;;;;;14.80;4.90;;;18.50;99.90;;;;;;5110777;28;20828;-71
2022/10/04 13:44:43;;;;;;;11.10;4.93;;;18.60;99.90;;;;;;5110767;28;20433;-71
2022/10/04 13:47:30;;;;;;;15.10;5.23;;;18.70;99.90;;;;;;5110363;28;20501;-71
2022/10/04 13:50:23;;;;;;;7.80;5.13;;;18.50;99.90;;;;;;5110628;28;20416;-71
2022/10/04 13:58:59;;;;;;;7.53;4.60;;;18.40;99.90;;;;;;5047383;28;20632;-71
2022/10/04 14:02:03;;;;;;;7.13;4.60;;;18.50;99.90;;;;;;5088068;28;20486;-71
2022/10/04 14:05:00;;;;;;;7.17;5.67;;;18.70;99.90;;;;;;5110728;28;20439;-71
2022/10/04 14:08:05;;;;;;;8.27;4.23;;;18.70;99.90;;;;;;5078784;28;21676;-72
2022/10/04 14:11:07;;;;;;;6.50;4.70;;;18.50;99.90;;;;;;5084206;28;20458;-71
2022/10/04 14:14:00;;;;;;;8.70;4.30;;;18.50;99.90;;;;;;5110430;28;20939;-71
2022/10/04 14:17:12;;;;;;;9.43;4.47;;;18.40;99.90;;;;;;5109505;28;20454;-71